sensor_id;sensor_type;location;lat;lon;timestamp;temperature;humidity
24522;DHT22;12680;57.804;12.190;2022-08-21T00:02:27;14.10;99.90
24522;DHT22;12680;57.804;12.190;2022-08-21T00:04:58;14.10;99.90
24522;DHT22;12680;57.804;12.190;2022-08-21T00:07:26;14.10;99.90
24522;DHT22;12680;57.804;12.190;2022-08-21T00:09:57;14.00;99.90
24522;DHT22;12680;57.804;12.190;2022-08-21T00:12:27;14.00;99.90
24522;DHT22;12680;57.804;12.190;2022-08-21T00:14:58;14.00;99.90
24522;DHT22;12680;57.804;12.190;2022-08-21T00:17:27;14.00;99.90
24522;DHT22;12680;57.804;12.190;2022-08-21T00:19:54;14.00;99.90
24522;DHT22;12680;57.804;12.190;2022-08-21T00:22:21;14.00;99.90
24522;DHT22;12680;57.804;12.190;2022-08-21T00:24:52;13.90;99.90
24522;DHT22;12680;57.804;12.190;2022-08-21T00:27:24;13.90;99.90
24522;DHT22;12680;57.804;12.190;2022-08-21T00:29:51;13.90;99.90
24522;DHT22;12680;57.804;12.190;2022-08-21T00:32:25;13.90;99.90
24522;DHT22;12680;57.804;12.190;2022-08-21T00:34:54;13.80;99.90
24522;DHT22;12680;57.804;12.190;2022-08-21T00:37:21;13.80;99.90
24522;DHT22;12680;57.804;12.190;2022-08-21T00:39:52;13.80;99.90
24522;DHT22;12680;57.804;12.190;2022-08-21T00:42:24;13.80;99.90
24522;DHT22;12680;57.804;12.190;2022-08-21T00:45:01;13.80;99.90
24522;DHT22;12680;57.804;12.190;2022-08-21T00:47:29;13.80;99.90
24522;DHT22;12680;57.804;12.190;2022-08-21T00:50:04;13.80;99.90
24522;DHT22;12680;57.804;12.190;2022-08-21T00:52:37;13.70;99.90
24522;DHT22;12680;57.804;12.190;2022-08-21T00:55:11;13.70;99.90
24522;DHT22;12680;57.804;12.190;2022-08-21T00:57:47;13.70;99.90
24522;DHT22;12680;57.804;12.190;2022-08-21T01:00:20;13.60;99.90
24522;DHT22;12680;57.804;12.190;2022-08-21T01:02:52;13.60;99.90
24522;DHT22;12680;57.804;12.190;2022-08-21T01:05:23;13.60;99.90
24522;DHT22;12680;57.804;12.190;2022-08-21T01:07:55;13.60;99.90
24522;DHT22;12680;57.804;12.190;2022-08-21T01:10:25;13.60;99.90
24522;DHT22;12680;57.804;12.190;2022-08-21T01:13:01;13.50;99.90
24522;DHT22;12680;57.804;12.190;2022-08-21T01:15:34;13.50;99.90
24522;DHT22;12680;57.804;12.190;2022-08-21T01:18:13;13.40;99.90
24522;DHT22;12680;57.804;12.190;2022-08-21T01:23:39;13.30;99.90
24522;DHT22;12680;57.804;12.190;2022-08-21T01:26:07;13.30;99.90
24522;DHT22;12680;57.804;12.190;2022-08-21T01:28:42;13.40;99.90
24522;DHT22;12680;57.804;12.190;2022-08-21T01:31:15;13.40;99.90
24522;DHT22;12680;57.804;12.190;2022-08-21T01:33:56;13.40;99.90
24522;DHT22;12680;57.804;12.190;2022-08-21T01:36:25;13.40;99.90
24522;DHT22;12680;57.804;12.190;2022-08-21T01:38:56;13.40;99.90
24522;DHT22;12680;57.804;12.190;2022-08-21T01:41:27;13.50;99.90
24522;DHT22;12680;57.804;12.190;2022-08-21T01:43:54;13.40;99.90
24522;DHT22;12680;57.804;12.190;2022-08-21T01:46:27;13.40;99.90
24522;DHT22;12680;57.804;12.190;2022-08-21T01:48:56;13.40;99.90
24522;DHT22;12680;57.804;12.190;2022-08-21T01:51:27;13.50;99.90
24522;DHT22;12680;57.804;12.190;2022-08-21T01:53:57;13.50;99.90
24522;DHT22;12680;57.804;12.190;2022-08-21T01:56:35;13.50;99.90
24522;DHT22;12680;57.804;12.190;2022-08-21T01:59:06;13.50;99.90
24522;DHT22;12680;57.804;12.190;2022-08-21T02:01:37;13.40;99.90
24522;DHT22;12680;57.804;12.190;2022-08-21T02:04:10;13.40;99.90
24522;DHT22;12680;57.804;12.190;2022-08-21T02:06:38;13.40;99.90
24522;DHT22;12680;57.804;12.190;2022-08-21T02:09:13;13.30;99.90
24522;DHT22;12680;57.804;12.190;2022-08-21T02:11:48;13.30;99.90
24522;DHT22;12680;57.804;12.190;2022-08-21T02:14:21;13.20;99.90
24522;DHT22;12680;57.804;12.190;2022-08-21T02:17:03;13.10;99.90
24522;DHT22;12680;57.804;12.190;2022-08-21T02:19:37;13.10;99.90
24522;DHT22;12680;57.804;12.190;2022-08-21T02:22:14;13.00;99.90
24522;DHT22;12680;57.804;12.190;2022-08-21T02:24:48;13.00;99.90
24522;DHT22;12680;57.804;12.190;2022-08-21T02:27:25;12.90;99.90
24522;DHT22;12680;57.804;12.190;2022-08-21T02:30:10;12.90;99.90
24522;DHT22;12680;57.804;12.190;2022-08-21T02:32:38;12.90;99.90
24522;DHT22;12680;57.804;12.190;2022-08-21T02:35:11;12.80;99.90
24522;DHT22;12680;57.804;12.190;2022-08-21T02:37:45;12.80;99.90
24522;DHT22;12680;57.804;12.190;2022-08-21T02:40:32;12.80;99.90
24522;DHT22;12680;57.804;12.190;2022-08-21T02:43:05;12.70;99.90
24522;DHT22;12680;57.804;12.190;2022-08-21T02:45:51;12.70;99.90
24522;DHT22;12680;57.804;12.190;2022-08-21T02:48:26;12.70;99.90
24522;DHT22;12680;57.804;12.190;2022-08-21T02:51:02;12.70;99.90
24522;DHT22;12680;57.804;12.190;2022-08-21T02:53:41;12.70;99.90
24522;DHT22;12680;57.804;12.190;2022-08-21T02:56:11;12.70;99.90
24522;DHT22;12680;57.804;12.190;2022-08-21T02:58:53;12.70;99.90
24522;DHT22;12680;57.804;12.190;2022-08-21T03:01:28;12.70;99.90
24522;DHT22;12680;57.804;12.190;2022-08-21T03:04:03;12.70;99.90
24522;DHT22;12680;57.804;12.190;2022-08-21T03:06:38;12.70;99.90
24522;DHT22;12680;57.804;12.190;2022-08-21T03:09:07;12.70;99.90
24522;DHT22;12680;57.804;12.190;2022-08-21T03:11:46;12.70;99.90
24522;DHT22;12680;57.804;12.190;2022-08-21T03:14:17;12.70;99.90
24522;DHT22;12680;57.804;12.190;2022-08-21T03:16:53;12.70;99.90
24522;DHT22;12680;57.804;12.190;2022-08-21T03:19:24;12.60;99.90
24522;DHT22;12680;57.804;12.190;2022-08-21T03:21:55;12.60;99.90
24522;DHT22;12680;57.804;12.190;2022-08-21T03:24:23;12.50;99.90
24522;DHT22;12680;57.804;12.190;2022-08-21T03:26:58;12.50;99.90
24522;DHT22;12680;57.804;12.190;2022-08-21T03:29:35;12.40;99.90
24522;DHT22;12680;57.804;12.190;2022-08-21T03:32:10;12.40;99.90
24522;DHT22;12680;57.804;12.190;2022-08-21T03:34:43;12.40;99.90
24522;DHT22;12680;57.804;12.190;2022-08-21T03:37:17;12.30;99.90
24522;DHT22;12680;57.804;12.190;2022-08-21T03:39:47;12.20;99.90
24522;DHT22;12680;57.804;12.190;2022-08-21T03:42:18;12.20;99.90
24522;DHT22;12680;57.804;12.190;2022-08-21T03:44:52;12.10;99.90
24522;DHT22;12680;57.804;12.190;2022-08-21T03:47:19;12.10;99.90
24522;DHT22;12680;57.804;12.190;2022-08-21T03:49:53;12.10;99.90
24522;DHT22;12680;57.804;12.190;2022-08-21T03:52:21;12.10;99.90
24522;DHT22;12680;57.804;12.190;2022-08-21T03:54:49;12.10;99.90
24522;DHT22;12680;57.804;12.190;2022-08-21T03:57:19;12.10;99.90
24522;DHT22;12680;57.804;12.190;2022-08-21T03:59:54;12.10;99.90
24522;DHT22;12680;57.804;12.190;2022-08-21T04:02:28;12.10;99.90
24522;DHT22;12680;57.804;12.190;2022-08-21T04:05:07;12.10;99.90
24522;DHT22;12680;57.804;12.190;2022-08-21T04:07:35;12.10;99.90
24522;DHT22;12680;57.804;12.190;2022-08-21T04:10:06;12.10;99.90
24522;DHT22;12680;57.804;12.190;2022-08-21T04:12:39;12.10;99.90
24522;DHT22;12680;57.804;12.190;2022-08-21T04:15:11;12.10;99.90
24522;DHT22;12680;57.804;12.190;2022-08-21T04:17:50;12.10;99.90
24522;DHT22;12680;57.804;12.190;2022-08-21T04:20:23;12.00;99.90
24522;DHT22;12680;57.804;12.190;2022-08-21T04:22:55;12.00;99.90
24522;DHT22;12680;57.804;12.190;2022-08-21T04:25:24;12.00;99.90
24522;DHT22;12680;57.804;12.190;2022-08-21T04:27:59;12.00;99.90
24522;DHT22;12680;57.804;12.190;2022-08-21T04:30:33;12.00;99.90
24522;DHT22;12680;57.804;12.190;2022-08-21T04:33:12;12.00;99.90
24522;DHT22;12680;57.804;12.190;2022-08-21T04:35:48;12.10;99.90
24522;DHT22;12680;57.804;12.190;2022-08-21T04:38:19;12.10;99.90
24522;DHT22;12680;57.804;12.190;2022-08-21T04:40:53;12.10;99.90
24522;DHT22;12680;57.804;12.190;2022-08-21T04:43:25;12.20;99.90
24522;DHT22;12680;57.804;12.190;2022-08-21T04:45:52;12.30;99.90
24522;DHT22;12680;57.804;12.190;2022-08-21T04:48:29;12.40;99.90
24522;DHT22;12680;57.804;12.190;2022-08-21T04:51:02;12.40;99.90
24522;DHT22;12680;57.804;12.190;2022-08-21T04:53:47;12.50;99.90
24522;DHT22;12680;57.804;12.190;2022-08-21T04:56:25;12.40;99.90
24522;DHT22;12680;57.804;12.190;2022-08-21T04:59:10;12.30;99.90
24522;DHT22;12680;57.804;12.190;2022-08-21T05:01:45;12.40;99.90
24522;DHT22;12680;57.804;12.190;2022-08-21T05:04:18;12.40;99.90
24522;DHT22;12680;57.804;12.190;2022-08-21T05:06:56;12.40;99.90
24522;DHT22;12680;57.804;12.190;2022-08-21T05:09:31;12.50;99.90
24522;DHT22;12680;57.804;12.190;2022-08-21T05:12:09;12.50;99.90
24522;DHT22;12680;57.804;12.190;2022-08-21T05:14:37;12.60;99.90
24522;DHT22;12680;57.804;12.190;2022-08-21T05:17:06;12.60;99.90
24522;DHT22;12680;57.804;12.190;2022-08-21T05:19:36;12.70;99.90
24522;DHT22;12680;57.804;12.190;2022-08-21T05:22:08;12.70;99.90
24522;DHT22;12680;57.804;12.190;2022-08-21T05:24:43;12.80;99.90
24522;DHT22;12680;57.804;12.190;2022-08-21T05:27:20;12.80;99.90
24522;DHT22;12680;57.804;12.190;2022-08-21T05:29:56;12.90;99.90
24522;DHT22;12680;57.804;12.190;2022-08-21T05:32:36;13.00;99.90
24522;DHT22;12680;57.804;12.190;2022-08-21T05:35:06;13.00;99.90
24522;DHT22;12680;57.804;12.190;2022-08-21T05:37:48;13.10;99.90
24522;DHT22;12680;57.804;12.190;2022-08-21T05:40:22;13.10;99.90
24522;DHT22;12680;57.804;12.190;2022-08-21T05:42:59;13.30;99.90
24522;DHT22;12680;57.804;12.190;2022-08-21T05:45:32;13.30;99.90
24522;DHT22;12680;57.804;12.190;2022-08-21T05:48:20;13.40;99.90
24522;DHT22;12680;57.804;12.190;2022-08-21T05:50:54;13.50;99.90
24522;DHT22;12680;57.804;12.190;2022-08-21T05:53:26;13.60;99.90
24522;DHT22;12680;57.804;12.190;2022-08-21T05:55:57;13.80;99.90
24522;DHT22;12680;57.804;12.190;2022-08-21T05:58:32;14.00;99.90
24522;DHT22;12680;57.804;12.190;2022-08-21T06:01:01;14.20;99.90
24522;DHT22;12680;57.804;12.190;2022-08-21T06:03:33;14.30;99.90
24522;DHT22;12680;57.804;12.190;2022-08-21T06:06:07;14.50;99.90
24522;DHT22;12680;57.804;12.190;2022-08-21T06:08:35;14.60;99.90
24522;DHT22;12680;57.804;12.190;2022-08-21T06:11:15;14.70;99.90
24522;DHT22;12680;57.804;12.190;2022-08-21T06:14:04;14.90;99.90
24522;DHT22;12680;57.804;12.190;2022-08-21T06:16:39;15.00;99.90
24522;DHT22;12680;57.804;12.190;2022-08-21T06:19:12;15.20;99.90
24522;DHT22;12680;57.804;12.190;2022-08-21T06:21:44;15.40;99.90
24522;DHT22;12680;57.804;12.190;2022-08-21T06:24:19;15.50;99.90
24522;DHT22;12680;57.804;12.190;2022-08-21T06:26:50;15.60;99.90
24522;DHT22;12680;57.804;12.190;2022-08-21T06:29:21;15.80;99.90
24522;DHT22;12680;57.804;12.190;2022-08-21T06:31:55;15.90;99.90
24522;DHT22;12680;57.804;12.190;2022-08-21T06:34:27;16.00;99.90
24522;DHT22;12680;57.804;12.190;2022-08-21T06:37:04;16.20;99.90
24522;DHT22;12680;57.804;12.190;2022-08-21T06:39:40;16.30;99.90
24522;DHT22;12680;57.804;12.190;2022-08-21T06:42:16;16.40;99.90
24522;DHT22;12680;57.804;12.190;2022-08-21T06:45:13;16.60;99.90
24522;DHT22;12680;57.804;12.190;2022-08-21T06:47:47;16.70;99.90
24522;DHT22;12680;57.804;12.190;2022-08-21T06:50:18;16.90;99.90
24522;DHT22;12680;57.804;12.190;2022-08-21T06:52:48;17.00;99.90
24522;DHT22;12680;57.804;12.190;2022-08-21T06:55:24;17.10;99.90
24522;DHT22;12680;57.804;12.190;2022-08-21T06:57:55;17.20;99.90
24522;DHT22;12680;57.804;12.190;2022-08-21T07:00:31;17.20;99.90
24522;DHT22;12680;57.804;12.190;2022-08-21T07:03:04;17.30;99.90
24522;DHT22;12680;57.804;12.190;2022-08-21T07:05:38;17.50;99.90
24522;DHT22;12680;57.804;12.190;2022-08-21T07:08:08;17.70;99.90
24522;DHT22;12680;57.804;12.190;2022-08-21T07:10:40;17.80;99.90
24522;DHT22;12680;57.804;12.190;2022-08-21T07:13:11;18.00;99.90
24522;DHT22;12680;57.804;12.190;2022-08-21T07:15:39;18.10;99.90
24522;DHT22;12680;57.804;12.190;2022-08-21T07:18:11;18.30;99.90
24522;DHT22;12680;57.804;12.190;2022-08-21T07:20:45;18.40;99.90
24522;DHT22;12680;57.804;12.190;2022-08-21T07:23:29;18.50;99.90
24522;DHT22;12680;57.804;12.190;2022-08-21T07:25:57;18.70;99.90
24522;DHT22;12680;57.804;12.190;2022-08-21T07:28:27;18.90;99.90
24522;DHT22;12680;57.804;12.190;2022-08-21T07:30:57;18.90;99.90
24522;DHT22;12680;57.804;12.190;2022-08-21T07:33:30;18.90;99.90
24522;DHT22;12680;57.804;12.190;2022-08-21T07:36:03;19.00;99.90
24522;DHT22;12680;57.804;12.190;2022-08-21T07:38:32;19.20;99.90
24522;DHT22;12680;57.804;12.190;2022-08-21T07:41:02;19.30;99.90
24522;DHT22;12680;57.804;12.190;2022-08-21T07:43:40;19.40;99.90
24522;DHT22;12680;57.804;12.190;2022-08-21T07:46:13;19.50;99.90
24522;DHT22;12680;57.804;12.190;2022-08-21T07:48:44;19.50;99.90
24522;DHT22;12680;57.804;12.190;2022-08-21T07:51:14;19.80;99.90
24522;DHT22;12680;57.804;12.190;2022-08-21T07:53:46;20.30;99.90
24522;DHT22;12680;57.804;12.190;2022-08-21T07:56:14;20.20;99.90
24522;DHT22;12680;57.804;12.190;2022-08-21T07:58:47;20.30;99.90
24522;DHT22;12680;57.804;12.190;2022-08-21T08:01:20;20.50;99.80
24522;DHT22;12680;57.804;12.190;2022-08-21T08:03:51;20.40;99.10
24522;DHT22;12680;57.804;12.190;2022-08-21T08:06:20;20.30;98.90
24522;DHT22;12680;57.804;12.190;2022-08-21T08:08:47;20.20;98.90
24522;DHT22;12680;57.804;12.190;2022-08-21T08:11:26;20.20;98.90
24522;DHT22;12680;57.804;12.190;2022-08-21T08:13:57;20.10;98.80
24522;DHT22;12680;57.804;12.190;2022-08-21T08:16:27;20.10;98.80
24522;DHT22;12680;57.804;12.190;2022-08-21T08:19:00;19.90;98.60
24522;DHT22;12680;57.804;12.190;2022-08-21T08:21:29;19.80;98.70
24522;DHT22;12680;57.804;12.190;2022-08-21T08:24:07;19.60;98.80
24522;DHT22;12680;57.804;12.190;2022-08-21T08:26:50;19.50;99.00
24522;DHT22;12680;57.804;12.190;2022-08-21T08:29:21;19.60;99.50
24522;DHT22;12680;57.804;12.190;2022-08-21T08:31:51;19.60;99.20
24522;DHT22;12680;57.804;12.190;2022-08-21T08:34:22;19.60;99.10
24522;DHT22;12680;57.804;12.190;2022-08-21T08:36:51;19.50;99.10
24522;DHT22;12680;57.804;12.190;2022-08-21T08:39:27;19.50;99.00
24522;DHT22;12680;57.804;12.190;2022-08-21T08:45:28;19.30;99.10
24522;DHT22;12680;57.804;12.190;2022-08-21T08:48:07;19.40;99.40
24522;DHT22;12680;57.804;12.190;2022-08-21T08:50:55;19.50;99.10
24522;DHT22;12680;57.804;12.190;2022-08-21T08:53:33;19.50;99.10
24522;DHT22;12680;57.804;12.190;2022-08-21T08:56:04;19.50;99.00
24522;DHT22;12680;57.804;12.190;2022-08-21T08:58:39;19.50;99.20
24522;DHT22;12680;57.804;12.190;2022-08-21T09:01:22;19.50;98.90
24522;DHT22;12680;57.804;12.190;2022-08-21T09:03:56;19.50;98.80
24522;DHT22;12680;57.804;12.190;2022-08-21T09:14:51;19.50;98.50
24522;DHT22;12680;57.804;12.190;2022-08-21T09:17:44;19.70;98.30
24522;DHT22;12680;57.804;12.190;2022-08-21T09:20:41;19.90;97.80
24522;DHT22;12680;57.804;12.190;2022-08-21T09:26:18;20.30;96.60
24522;DHT22;12680;57.804;12.190;2022-08-21T09:28:56;20.50;96.20
24522;DHT22;12680;57.804;12.190;2022-08-21T09:31:34;20.50;95.90
24522;DHT22;12680;57.804;12.190;2022-08-21T09:34:23;20.70;95.90
24522;DHT22;12680;57.804;12.190;2022-08-21T09:36:57;20.80;95.40
24522;DHT22;12680;57.804;12.190;2022-08-21T09:39:37;21.00;95.30
24522;DHT22;12680;57.804;12.190;2022-08-21T09:42:25;21.20;94.90
24522;DHT22;12680;57.804;12.190;2022-08-21T09:45:17;21.40;94.20
24522;DHT22;12680;57.804;12.190;2022-08-21T09:47:48;21.60;94.10
24522;DHT22;12680;57.804;12.190;2022-08-21T09:50:27;21.70;93.90
24522;DHT22;12680;57.804;12.190;2022-08-21T09:52:58;21.90;93.60
24522;DHT22;12680;57.804;12.190;2022-08-21T09:55:37;21.90;93.10
24522;DHT22;12680;57.804;12.190;2022-08-21T09:58:35;21.80;93.10
24522;DHT22;12680;57.804;12.190;2022-08-21T10:01:11;21.80;93.40
24522;DHT22;12680;57.804;12.190;2022-08-21T10:03:45;21.80;93.10
24522;DHT22;12680;57.804;12.190;2022-08-21T10:06:27;21.80;92.60
24522;DHT22;12680;57.804;12.190;2022-08-21T10:11:42;21.80;92.30
24522;DHT22;12680;57.804;12.190;2022-08-21T10:14:17;21.80;92.40
24522;DHT22;12680;57.804;12.190;2022-08-21T10:17:04;21.90;92.60
24522;DHT22;12680;57.804;12.190;2022-08-21T10:19:48;21.90;92.40
24522;DHT22;12680;57.804;12.190;2022-08-21T10:22:32;22.00;92.30
24522;DHT22;12680;57.804;12.190;2022-08-21T10:28:13;22.30;91.90
24522;DHT22;12680;57.804;12.190;2022-08-21T10:36:39;22.50;91.30
24522;DHT22;12680;57.804;12.190;2022-08-21T10:43:04;22.60;91.30
24522;DHT22;12680;57.804;12.190;2022-08-21T10:47:46;22.80;90.90
24522;DHT22;12680;57.804;12.190;2022-08-21T10:55:38;23.10;90.70
24522;DHT22;12680;57.804;12.190;2022-08-21T10:58:19;23.10;90.60
24522;DHT22;12680;57.804;12.190;2022-08-21T11:01:04;23.20;90.70
24522;DHT22;12680;57.804;12.190;2022-08-21T11:03:46;23.10;90.60
24522;DHT22;12680;57.804;12.190;2022-08-21T11:06:25;23.30;90.80
24522;DHT22;12680;57.804;12.190;2022-08-21T11:09:24;23.40;90.50
24522;DHT22;12680;57.804;12.190;2022-08-21T11:12:03;23.40;90.10
24522;DHT22;12680;57.804;12.190;2022-08-21T11:17:41;23.30;90.10
24522;DHT22;12680;57.804;12.190;2022-08-21T11:20:15;23.40;90.20
24522;DHT22;12680;57.804;12.190;2022-08-21T11:23:13;23.60;90.30
24522;DHT22;12680;57.804;12.190;2022-08-21T11:25:49;23.80;88.70
24522;DHT22;12680;57.804;12.190;2022-08-21T11:28:35;24.00;89.20
24522;DHT22;12680;57.804;12.190;2022-08-21T11:31:32;24.10;88.30
24522;DHT22;12680;57.804;12.190;2022-08-21T11:34:23;24.10;88.10
24522;DHT22;12680;57.804;12.190;2022-08-21T11:37:40;24.20;88.10
24522;DHT22;12680;57.804;12.190;2022-08-21T11:42:55;24.40;87.60
24522;DHT22;12680;57.804;12.190;2022-08-21T11:45:33;24.30;86.40
24522;DHT22;12680;57.804;12.190;2022-08-21T11:49:01;24.20;85.70
24522;DHT22;12680;57.804;12.190;2022-08-21T11:51:17;24.30;85.80
24522;DHT22;12680;57.804;12.190;2022-08-21T11:53:51;24.30;84.50
24522;DHT22;12680;57.804;12.190;2022-08-21T11:56:37;24.20;84.40
24522;DHT22;12680;57.804;12.190;2022-08-21T11:59:13;24.40;85.50
24522;DHT22;12680;57.804;12.190;2022-08-21T12:01:48;24.50;84.90
24522;DHT22;12680;57.804;12.190;2022-08-21T12:04:32;24.50;83.80
24522;DHT22;12680;57.804;12.190;2022-08-21T12:07:27;24.40;84.20
24522;DHT22;12680;57.804;12.190;2022-08-21T12:10:00;24.40;84.10
24522;DHT22;12680;57.804;12.190;2022-08-21T12:12:33;24.70;84.20
24522;DHT22;12680;57.804;12.190;2022-08-21T12:15:26;24.90;83.50
24522;DHT22;12680;57.804;12.190;2022-08-21T12:17:59;25.10;82.90
24522;DHT22;12680;57.804;12.190;2022-08-21T12:20:41;25.30;81.50
24522;DHT22;12680;57.804;12.190;2022-08-21T12:23:24;25.20;81.60
24522;DHT22;12680;57.804;12.190;2022-08-21T12:26:28;25.20;81.80
24522;DHT22;12680;57.804;12.190;2022-08-21T12:29:13;25.20;81.10
24522;DHT22;12680;57.804;12.190;2022-08-21T12:31:53;25.00;80.70
24522;DHT22;12680;57.804;12.190;2022-08-21T12:34:29;25.00;81.50
24522;DHT22;12680;57.804;12.190;2022-08-21T12:37:17;25.00;81.20
24522;DHT22;12680;57.804;12.190;2022-08-21T12:39:49;25.20;81.70
24522;DHT22;12680;57.804;12.190;2022-08-21T12:42:20;25.50;81.50
24522;DHT22;12680;57.804;12.190;2022-08-21T12:45:03;25.60;81.10
24522;DHT22;12680;57.804;12.190;2022-08-21T12:47:43;25.60;80.00
24522;DHT22;12680;57.804;12.190;2022-08-21T12:50:22;25.40;80.10
24522;DHT22;12680;57.804;12.190;2022-08-21T12:53:13;25.40;80.50
24522;DHT22;12680;57.804;12.190;2022-08-21T12:55:47;25.40;79.50
24522;DHT22;12680;57.804;12.190;2022-08-21T12:58:24;25.20;80.00
24522;DHT22;12680;57.804;12.190;2022-08-21T13:01:00;25.00;80.80
24522;DHT22;12680;57.804;12.190;2022-08-21T13:03:36;24.90;81.50
24522;DHT22;12680;57.804;12.190;2022-08-21T13:06:06;24.70;82.00
24522;DHT22;12680;57.804;12.190;2022-08-21T13:08:36;24.70;82.90
24522;DHT22;12680;57.804;12.190;2022-08-21T13:11:18;24.70;83.20
24522;DHT22;12680;57.804;12.190;2022-08-21T13:14:04;24.60;83.50
24522;DHT22;12680;57.804;12.190;2022-08-21T13:16:34;24.60;84.20
24522;DHT22;12680;57.804;12.190;2022-08-21T13:19:04;24.50;84.30
24522;DHT22;12680;57.804;12.190;2022-08-21T13:21:45;24.50;84.80
24522;DHT22;12680;57.804;12.190;2022-08-21T13:24:24;24.30;84.60
24522;DHT22;12680;57.804;12.190;2022-08-21T13:27:23;24.10;85.40
24522;DHT22;12680;57.804;12.190;2022-08-21T13:30:08;23.90;86.40
24522;DHT22;12680;57.804;12.190;2022-08-21T13:32:43;23.80;86.90
24522;DHT22;12680;57.804;12.190;2022-08-21T13:35:22;23.80;87.40
24522;DHT22;12680;57.804;12.190;2022-08-21T13:37:51;23.80;88.10
24522;DHT22;12680;57.804;12.190;2022-08-21T13:40:26;23.80;88.40
24522;DHT22;12680;57.804;12.190;2022-08-21T13:42:59;23.90;88.80
24522;DHT22;12680;57.804;12.190;2022-08-21T13:45:33;24.20;89.20
24522;DHT22;12680;57.804;12.190;2022-08-21T13:48:04;24.50;88.80
24522;DHT22;12680;57.804;12.190;2022-08-21T13:50:36;24.70;88.90
24522;DHT22;12680;57.804;12.190;2022-08-21T13:53:43;24.80;88.70
24522;DHT22;12680;57.804;12.190;2022-08-21T13:56:30;24.90;88.60
24522;DHT22;12680;57.804;12.190;2022-08-21T13:59:06;24.90;87.70
24522;DHT22;12680;57.804;12.190;2022-08-21T14:02:22;24.70;87.00
24522;DHT22;12680;57.804;12.190;2022-08-21T14:07:24;24.20;86.30
24522;DHT22;12680;57.804;12.190;2022-08-21T14:09:54;24.00;86.60
24522;DHT22;12680;57.804;12.190;2022-08-21T14:12:29;23.80;87.10
24522;DHT22;12680;57.804;12.190;2022-08-21T14:15:03;23.80;87.90
24522;DHT22;12680;57.804;12.190;2022-08-21T14:17:37;23.70;88.70
24522;DHT22;12680;57.804;12.190;2022-08-21T14:20:09;23.70;89.40
24522;DHT22;12680;57.804;12.190;2022-08-21T14:22:44;23.60;89.90
24522;DHT22;12680;57.804;12.190;2022-08-21T14:25:30;23.50;90.30
24522;DHT22;12680;57.804;12.190;2022-08-21T14:30:42;23.40;90.80
24522;DHT22;12680;57.804;12.190;2022-08-21T14:33:26;23.40;91.00
24522;DHT22;12680;57.804;12.190;2022-08-21T14:36:00;23.30;91.10
24522;DHT22;12680;57.804;12.190;2022-08-21T14:38:34;23.20;91.10
24522;DHT22;12680;57.804;12.190;2022-08-21T14:41:29;23.00;91.30
24522;DHT22;12680;57.804;12.190;2022-08-21T14:44:13;22.90;91.80
24522;DHT22;12680;57.804;12.190;2022-08-21T14:46:42;22.90;91.90
24522;DHT22;12680;57.804;12.190;2022-08-21T14:49:30;23.00;92.00
24522;DHT22;12680;57.804;12.190;2022-08-21T14:52:03;23.00;92.20
24522;DHT22;12680;57.804;12.190;2022-08-21T14:54:38;23.10;92.30
24522;DHT22;12680;57.804;12.190;2022-08-21T14:57:14;23.20;92.20
24522;DHT22;12680;57.804;12.190;2022-08-21T14:59:48;23.40;92.30
24522;DHT22;12680;57.804;12.190;2022-08-21T15:02:20;23.50;92.30
24522;DHT22;12680;57.804;12.190;2022-08-21T15:04:47;23.70;92.10
24522;DHT22;12680;57.804;12.190;2022-08-21T15:07:19;23.90;91.80
24522;DHT22;12680;57.804;12.190;2022-08-21T15:09:54;24.10;91.50
24522;DHT22;12680;57.804;12.190;2022-08-21T15:12:25;24.10;91.10
24522;DHT22;12680;57.804;12.190;2022-08-21T15:14:59;24.00;90.50
24522;DHT22;12680;57.804;12.190;2022-08-21T15:17:29;23.80;90.40
24522;DHT22;12680;57.804;12.190;2022-08-21T15:20:00;23.50;90.50
24522;DHT22;12680;57.804;12.190;2022-08-21T15:22:28;23.30;90.70
24522;DHT22;12680;57.804;12.190;2022-08-21T15:24:58;23.30;90.90
24522;DHT22;12680;57.804;12.190;2022-08-21T15:27:25;23.40;91.20
24522;DHT22;12680;57.804;12.190;2022-08-21T15:29:56;23.60;91.20
24522;DHT22;12680;57.804;12.190;2022-08-21T15:32:31;23.80;91.00
24522;DHT22;12680;57.804;12.190;2022-08-21T15:35:06;23.80;90.70
24522;DHT22;12680;57.804;12.190;2022-08-21T15:37:38;23.90;90.70
24522;DHT22;12680;57.804;12.190;2022-08-21T15:40:06;23.90;90.60
24522;DHT22;12680;57.804;12.190;2022-08-21T15:42:38;23.80;90.70
24522;DHT22;12680;57.804;12.190;2022-08-21T15:45:11;23.60;90.60
24522;DHT22;12680;57.804;12.190;2022-08-21T15:47:44;23.40;90.80
24522;DHT22;12680;57.804;12.190;2022-08-21T15:50:12;23.20;91.10
24522;DHT22;12680;57.804;12.190;2022-08-21T15:52:44;23.00;91.40
24522;DHT22;12680;57.804;12.190;2022-08-21T15:55:15;23.00;91.70
24522;DHT22;12680;57.804;12.190;2022-08-21T15:57:52;22.80;91.80
24522;DHT22;12680;57.804;12.190;2022-08-21T16:00:32;22.70;92.00
24522;DHT22;12680;57.804;12.190;2022-08-21T16:03:03;22.60;92.20
24522;DHT22;12680;57.804;12.190;2022-08-21T16:05:38;22.50;92.40
24522;DHT22;12680;57.804;12.190;2022-08-21T16:08:06;22.50;92.60
24522;DHT22;12680;57.804;12.190;2022-08-21T16:10:41;22.40;92.50
24522;DHT22;12680;57.804;12.190;2022-08-21T16:13:23;22.30;92.50
24522;DHT22;12680;57.804;12.190;2022-08-21T16:16:01;22.20;92.40
24522;DHT22;12680;57.804;12.190;2022-08-21T16:18:28;22.10;92.50
24522;DHT22;12680;57.804;12.190;2022-08-21T16:21:06;22.00;92.40
24522;DHT22;12680;57.804;12.190;2022-08-21T16:23:38;21.90;92.40
24522;DHT22;12680;57.804;12.190;2022-08-21T16:26:12;21.80;92.50
24522;DHT22;12680;57.804;12.190;2022-08-21T16:28:45;21.70;92.60
24522;DHT22;12680;57.804;12.190;2022-08-21T16:31:23;21.60;92.60
24522;DHT22;12680;57.804;12.190;2022-08-21T16:33:58;21.50;92.70
24522;DHT22;12680;57.804;12.190;2022-08-21T16:36:38;21.40;92.90
24522;DHT22;12680;57.804;12.190;2022-08-21T16:39:12;21.30;93.10
24522;DHT22;12680;57.804;12.190;2022-08-21T16:41:40;21.20;93.30
24522;DHT22;12680;57.804;12.190;2022-08-21T16:44:15;21.20;93.40
24522;DHT22;12680;57.804;12.190;2022-08-21T16:46:47;21.20;93.50
24522;DHT22;12680;57.804;12.190;2022-08-21T16:49:29;21.10;93.60
24522;DHT22;12680;57.804;12.190;2022-08-21T16:52:05;21.10;93.90
24522;DHT22;12680;57.804;12.190;2022-08-21T16:54:32;21.20;94.30
24522;DHT22;12680;57.804;12.190;2022-08-21T16:57:07;21.40;94.50
24522;DHT22;12680;57.804;12.190;2022-08-21T16:59:39;21.70;94.50